Terminal Aerodrome Forecast
Issued by NWS Austin/San Antonio, TX

Home | Current Version | Previous Version | Text Only | Print | Product List | Glossary On
Versions: 1 2 3 4 5 6 7 8 9 10 11 12 13 14 15 16 17 18 19
179
FTUS44 KEWX 242325
TAFSAT
TAF
KSAT 242325Z 2500/2606 16009KT P6SM BKN250
     FM250800 34008KT P6SM OVC100
     FM251600 35010G20KT P6SM SCT250
     FM260000 33009KT P6SM BKN250=

USA.gov is the U.S. government's official web portal to all federal, state and local government web resources and services.